O John Clark Restricted Landing Area [CLOSED]

Jump to: basic info | weather | comments

Related pages: nearby airports | nearby navaids | notams | map

Basic information (top)

Codes: 7IL2
Location: lon 42.368401, lat -87.991699, elev 790 ft / 241 m msl
Status: closed

Weather (top)

Current conditions for Waukegan Regional Airport 6nm (12km) ENE (rec'd 2014/08/21 13:52Z):

KUGN 211352Z 19005KT 9SM CLR 22/21 A2995 RMK AO2 RAE12 SLP133 P0000 T02220206

Airport forecast for Kenosha Regional Airport 14nm (26km) NNE (rec'd 2014/08/21 12:48Z):

TAF KENW 211146Z 2112/2212 VRB03KT P6SM SCT008 BKN100 
      TEMPO 2112/2114 BKN008 
     FM211600 19007KT P6SM VCTS BKN035CB BKN060 
     FM212200 17007KT P6SM +TSRA BKN030CB 
     FM220400 15004KT 5SM SHRA BKN030 
     FM220600 19005KT 2SM SHRA BKN015 BKN060 
     FM220800 17006KT 1SM BR BKN010

Latest comments (top)

No comments yet for O John Clark Restricted Landing Area

More... (top)

See also NOTAMs and nearby airports and navaids, or visit the O John Clark Restricted Landing Area page at the main OurAirports website..